Time;durP1;ratioP1;P1;durP2;ratioP2;P2;SDS_P1;SDS_P2;PMS_P1;PMS_P2;Temp;Humidity;BMP_temperature;BMP_pressure;BME280_temperature;BME280_humidity;BME280_pressure;Samples;Min_cycle;Max_cycle;Signal;HPM_P1;HPM_P2
2023/03/14 00:00:54;;;;;;;3.60;1.27;;;;;;;12.59;61.80;97817.22;5030739;28;20131;-60
2023/03/14 00:03:21;;;;;;;3.58;1.40;;;;;;;12.57;61.30;97819.59;5029991;28;20408;-60
2023/03/14 00:05:49;;;;;;;3.97;1.60;;;;;;;12.59;61.92;97813.63;5028281;27;20054;-59
2023/03/14 00:08:16;;;;;;;4.28;1.40;;;;;;;12.68;61.79;97808.50;5030127;28;20138;-60
2023/03/14 00:10:44;;;;;;;3.08;1.20;;;;;;;12.67;61.82;97818.03;5030780;28;20049;-61
2023/03/14 00:13:11;;;;;;;5.10;1.08;;;;;;;12.65;60.77;97809.25;5030861;28;20376;-60
2023/03/14 00:15:38;;;;;;;5.00;1.63;;;;;;;12.69;60.97;97817.66;5030294;28;20061;-60
2023/03/14 00:18:07;;;;;;;3.38;1.27;;;;;;;12.64;61.11;97798.47;5030647;28;20052;-60
2023/03/14 00:20:34;;;;;;;5.43;1.80;;;;;;;12.64;60.90;97798.47;5029321;27;20061;-61
2023/03/14 00:23:02;;;;;;;5.07;1.92;;;;;;;12.65;61.12;97791.72;5030612;28;20057;-60
2023/03/14 00:25:29;;;;;;;4.10;1.30;;;;;;;12.71;60.50;97784.56;5030518;28;20053;-60
2023/03/14 00:27:56;;;;;;;4.75;1.60;;;;;;;12.74;61.05;97806.09;5030206;28;20488;-60
2023/03/14 00:30:23;;;;;;;4.45;1.50;;;;;;;12.67;61.13;97795.69;5030552;28;20049;-60
2023/03/14 00:32:51;;;;;;;3.40;1.20;;;;;;;12.71;60.58;97806.91;5030342;28;20053;-60
2023/03/14 00:35:19;;;;;;;3.00;1.20;;;;;;;12.67;60.85;97822.84;5029026;28;20057;-60
2023/03/14 00:37:47;;;;;;;2.05;1.00;;;;;;;12.66;61.24;97815.63;5030445;28;20373;-60
2023/03/14 00:40:14;;;;;;;4.18;1.60;;;;;;;12.71;60.77;97824.44;5030635;28;20058;-60
2023/03/14 00:42:41;;;;;;;4.32;1.60;;;;;;;12.72;60.63;97840.00;5030072;28;20049;-61
2023/03/14 00:45:10;;;;;;;3.05;1.30;;;;;;;12.71;60.67;97851.59;5030202;28;20057;-60
2023/03/14 00:47:37;;;;;;;3.08;1.30;;;;;;;12.67;61.12;97834.00;5029860;28;20045;-60
2023/03/14 00:50:04;;;;;;;3.22;1.30;;;;;;;12.68;61.72;97816.03;5028923;28;20064;-60
2023/03/14 00:52:33;;;;;;;4.35;1.30;;;;;;;12.68;61.13;97830.00;5029770;28;20469;-60
2023/03/14 00:55:00;;;;;;;5.45;1.17;;;;;;;12.73;60.70;97808.09;5029963;28;20407;-60
2023/03/14 00:57:28;;;;;;;3.42;1.70;;;;;;;12.81;60.43;97806.13;5029650;28;20068;-60
2023/03/14 00:59:55;;;;;;;4.60;1.55;;;;;;;12.81;59.98;97817.31;5029946;28;20058;-60
2023/03/14 01:02:22;;;;;;;6.03;1.40;;;;;;;12.84;60.87;97790.56;5029869;28;20515;-60
2023/03/14 01:04:50;;;;;;;3.92;1.63;;;;;;;12.91;60.12;97782.97;5028573;27;20059;-60
2023/03/14 01:07:18;;;;;;;5.57;1.42;;;;;;;12.88;60.30;97783.78;5029590;28;20060;-60
2023/03/14 01:09:46;;;;;;;3.08;1.30;;;;;;;12.91;59.82;97807.34;5029790;28;20049;-60
2023/03/14 01:12:13;;;;;;;5.05;1.35;;;;;;;12.91;59.90;97779.41;5030110;28;20053;-60
2023/03/14 01:14:41;;;;;;;5.47;1.50;;;;;;;12.92;59.50;97784.59;5029756;28;20053;-60
2023/03/14 01:17:08;;;;;;;5.88;1.60;;;;;;;12.92;60.96;97781.00;5029736;28;20068;-60
2023/03/14 01:19:35;;;;;;;3.72;1.40;;;;;;;12.93;60.78;97783.38;5028504;28;20060;-60
2023/03/14 01:22:02;;;;;;;2.88;1.23;;;;;;;12.97;60.63;97791.78;5029821;28;20053;-60
2023/03/14 01:24:30;;;;;;;3.03;1.35;;;;;;;13.00;59.70;97797.38;5030022;28;20056;-60
2023/03/14 01:26:58;;;;;;;11.13;1.65;;;;;;;12.71;64.28;97790.13;5029604;28;20049;-60
2023/03/14 01:29:26;;;;;;;6.20;1.52;;;;;;;12.63;68.65;97791.31;5029020;28;20046;-61
2023/03/14 01:31:53;;;;;;;6.93;1.90;;;;;;;12.00;73.85;97855.59;5029451;28;20514;-60
2023/03/14 01:34:20;;;;;;;6.13;1.60;;;;;;;12.18;73.63;97867.66;5028769;28;20053;-60
2023/03/14 01:36:47;;;;;;;4.43;1.77;;;;;;;12.02;73.60;97905.41;5028599;28;20419;-60
2023/03/14 01:39:15;;;;;;;7.03;1.73;;;;;;;11.15;81.61;97878.75;5029554;28;20049;-62
2023/03/14 01:41:42;;;;;;;5.97;2.35;;;;;;;10.37;87.72;97890.50;5028860;28;20411;-62
2023/03/14 01:44:13;;;;;;;4.50;2.03;;;;;;;10.01;90.46;97903.84;5029434;28;20529;-62
2023/03/14 01:46:41;;;;;;;8.90;2.30;;;;;;;9.86;93.63;97877.03;5029364;28;20604;-63
2023/03/14 01:49:19;;;;;;;3.88;1.45;;;;;;;9.62;96.71;97859.59;5022828;28;20484;-60
2023/03/14 01:51:52;;;;;;;5.63;1.55;;;;;;;9.41;97.26;97842.53;5009115;28;20057;-60
2023/03/14 01:54:24;;;;;;;3.20;1.35;;;;;;;9.22;99.24;97847.00;5009092;28;20057;-60
2023/03/14 01:56:56;;;;;;;3.53;1.48;;;;;;;9.21;100.00;97842.59;5009444;28;20058;-60
2023/03/14 01:59:29;;;;;;;8.40;1.63;;;;;;;9.11;100.00;97838.50;5009311;28;20057;-60
2023/03/14 02:01:57;;;;;;;3.83;1.30;;;;;;;9.00;100.00;97839.47;5009030;28;20060;-60
2023/03/14 02:04:26;;;;;;;3.97;1.20;;;;;;;9.06;100.00;97815.78;5025296;28;20061;-60
2023/03/14 02:06:59;;;;;;;6.40;1.50;;;;;;;9.08;100.00;97818.97;5027032;28;20124;-60
2023/03/14 02:09:26;;;;;;;5.20;1.63;;;;;;;8.92;100.00;97822.69;5028947;28;20501;-60
2023/03/14 02:11:54;;;;;;;4.20;1.70;;;;;;;8.98;100.00;97827.91;5030085;28;20508;-60
2023/03/14 02:14:31;;;;;;;6.70;1.85;;;;;;;9.00;100.00;97811.69;5032652;28;20060;-60
2023/03/14 02:16:59;;;;;;;3.45;1.30;;;;;;;8.97;100.00;97820.78;5032426;28;20060;-60
2023/03/14 02:19:40;;;;;;;3.95;1.50;;;;;;;8.96;100.00;97822.72;5030936;27;20052;-60
2023/03/14 02:22:11;;;;;;;3.63;1.27;;;;;;;9.03;100.00;97828.41;5031976;28;20060;-60
2023/03/14 02:24:46;;;;;;;5.15;1.45;;;;;;;9.12;100.00;97820.63;5032479;28;20060;-60
2023/03/14 02:27:16;;;;;;;7.13;1.80;;;;;;;9.12;100.00;97819.84;5032231;28;20057;-60
2023/03/14 02:29:51;;;;;;;3.58;1.23;;;;;;;9.13;100.00;97824.22;5031910;27;20404;-61
2023/03/14 02:32:21;;;;;;;7.32;1.52;;;;;;;9.07;100.00;97829.28;5032230;28;20054;-61
2023/03/14 02:34:50;;;;;;;;;;;;;;;9.20;100.00;97824.34;5031074;28;20061;-59
2023/03/14 02:37:20;;;;;;;6.93;1.58;;;;;;;9.21;100.00;97822.38;5031876;28;19936;-59
2023/03/14 02:39:48;;;;;;;5.80;1.55;;;;;;;9.09;100.00;97812.25;5031694;28;20060;-60
2023/03/14 02:42:18;;;;;;;6.38;1.70;;;;;;;9.11;100.00;97810.72;5031615;28;20057;-60
2023/03/14 02:44:54;;;;;;;4.47;1.45;;;;;;;9.08;100.00;97819.78;5031833;28;20050;-60
2023/03/14 02:47:27;;;;;;;8.32;1.83;;;;;;;9.21;97.00;97806.50;5032046;28;20427;-60
2023/03/14 02:50:00;;;;;;;6.65;1.67;;;;;;;9.24;96.64;97805.78;5031162;28;20046;-59
2023/03/14 02:52:27;;;;;;;6.15;1.95;;;;;;;9.31;96.60;97811.44;5031435;28;20061;-60
2023/03/14 02:54:55;;;;;;;8.27;1.83;;;;;;;9.34;94.86;97805.16;5032054;28;20408;-60
2023/03/14 02:57:23;;;;;;;6.18;1.67;;;;;;;9.42;95.55;97796.94;5031849;28;20065;-60
2023/03/14 02:59:51;;;;;;;6.07;1.60;;;;;;;9.48;95.30;97798.22;5031488;28;20060;-60
2023/03/14 03:02:18;;;;;;;6.80;1.98;;;;;;;9.52;93.97;97793.50;5031431;28;20049;-59
2023/03/14 03:04:45;;;;;;;5.10;1.67;;;;;;;9.59;92.22;97804.72;5030313;28;20058;-59
2023/03/14 03:07:12;;;;;;;4.65;1.45;;;;;;;9.74;93.49;97800.19;5031319;28;20064;-60
2023/03/14 03:09:39;;;;;;;6.03;1.40;;;;;;;9.74;92.03;97794.63;5031275;28;20053;-59
2023/03/14 03:12:07;;;;;;;7.75;1.85;;;;;;;9.72;90.97;97783.91;5029330;28;20054;-60
2023/03/14 03:14:37;;;;;;;4.57;1.20;;;;;;;9.79;88.77;97785.19;5031975;28;20053;-60
2023/03/14 03:17:04;;;;;;;;;;;;;;;9.87;89.03;97778.53;5032141;28;20056;-60
2023/03/14 03:19:31;;;;;;;3.33;1.15;;;;;;;9.90;87.62;97783.34;5030968;28;20290;-63
2023/03/14 03:21:59;;;;;;;3.47;1.23;;;;;;;9.96;87.74;97785.41;5031529;28;20411;-63
2023/03/14 03:24:26;;;;;;;5.78;1.92;;;;;;;10.04;87.43;97779.97;5031764;28;20501;-63
2023/03/14 03:26:54;;;;;;;4.75;1.27;;;;;;;10.07;87.22;97777.22;5031554;28;20064;-63
2023/03/14 03:29:21;;;;;;;7.38;1.70;;;;;;;10.15;86.84;97780.91;5032539;28;20062;-63
2023/03/14 03:31:49;;;;;;;3.63;1.10;;;;;;;10.16;86.42;97769.41;5031558;28;20076;-62
2023/03/14 03:34:17;;;;;;;4.05;1.60;;;;;;;10.22;85.58;97766.28;5031253;28;20502;-62
2023/03/14 03:36:44;;;;;;;4.35;1.30;;;;;;;10.16;84.01;97783.31;5031468;28;20053;-62
2023/03/14 03:39:11;;;;;;;6.47;1.33;;;;;;;10.26;84.68;97765.13;5032002;28;20056;-62
2023/03/14 03:41:39;;;;;;;3.45;1.17;;;;;;;10.33;84.95;97767.22;5031337;28;20061;-62
2023/03/14 03:44:06;;;;;;;4.22;1.50;;;;;;;10.32;84.30;97758.09;5031351;28;20372;-62
2023/03/14 03:46:33;;;;;;;6.20;1.30;;;;;;;10.32;84.61;97754.50;5031667;28;20057;-61
2023/03/14 03:49:03;;;;;;;3.65;1.10;;;;;;;10.32;83.56;97746.97;5030878;28;20145;-61
2023/03/14 03:51:30;;;;;;;5.40;1.45;;;;;;;10.29;83.40;97749.66;5031791;28;20057;-61
2023/03/14 03:53:57;;;;;;;7.03;1.58;;;;;;;10.34;84.38;97749.38;5030597;28;20412;-61
2023/03/14 03:56:25;;;;;;;5.45;1.65;;;;;;;10.29;83.98;97747.72;5031127;28;20495;-61
2023/03/14 03:58:52;;;;;;;3.97;1.30;;;;;;;10.35;83.77;97753.72;5030927;28;20057;-61
2023/03/14 04:01:19;;;;;;;6.47;1.60;;;;;;;10.37;83.76;97754.16;5030454;28;20064;-61
2023/03/14 04:03:46;;;;;;;6.60;1.42;;;;;;;10.37;84.17;97762.50;5029841;28;20057;-61
2023/03/14 04:06:15;;;;;;;7.88;2.05;;;;;;;10.31;86.29;97764.84;5030465;28;20447;-61
2023/03/14 04:08:43;;;;;;;7.43;1.77;;;;;;;10.34;86.58;97766.84;5030055;28;20061;-61
2023/03/14 04:11:10;;;;;;;6.05;1.70;;;;;;;10.09;89.41;97774.06;5029265;28;20046;-61
2023/03/14 04:13:38;;;;;;;15.48;2.60;;;;;;;9.58;94.50;97783.69;5030798;28;20476;-63
2023/03/14 04:16:15;;;;;;;12.75;2.83;;;;;;;9.45;97.30;97771.97;5030331;28;20060;-65
2023/03/14 04:18:42;;;;;;;8.88;2.28;;;;;;;9.35;100.00;97801.19;5023899;28;20054;-65
2023/03/14 04:21:09;;;;;;;6.13;2.17;;;;;;;9.43;100.00;97790.19;5010704;28;20054;-65
2023/03/14 04:23:38;;;;;;;8.98;2.28;;;;;;;9.31;100.00;97778.09;5010919;28;20053;-65
2023/03/14 04:26:06;;;;;;;9.25;2.08;;;;;;;9.29;100.00;97774.91;5010498;28;20054;-66
2023/03/14 04:28:35;;;;;;;12.75;2.83;;;;;;;9.27;100.00;97774.47;5010816;28;20054;-67
2023/03/14 04:31:08;;;;;;;8.77;2.47;;;;;;;9.26;100.00;97760.94;5010523;28;20057;-67
2023/03/14 04:33:36;;;;;;;14.73;2.03;;;;;;;9.12;100.00;97769.88;5018485;28;20060;-67
2023/03/14 04:36:05;;;;;;;4.53;1.65;;;;;;;9.07;100.00;97767.38;5029498;28;20053;-68
2023/03/14 04:38:33;;;;;;;6.32;2.58;;;;;;;9.23;100.00;97753.38;5030461;28;20076;-67
2023/03/14 04:41:02;;;;;;;9.45;2.90;;;;;;;9.22;100.00;97746.19;5030295;28;20438;-67
2023/03/14 04:43:29;;;;;;;12.18;3.10;;;;;;;9.31;100.00;97739.22;5029971;28;20060;-67
2023/03/14 04:45:58;;;;;;;10.27;3.28;;;;;;;9.38;100.00;97732.16;5030366;28;20415;-67
2023/03/14 04:48:26;;;;;;;10.35;3.42;;;;;;;9.29;100.00;97727.69;5028701;27;20542;-66
2023/03/14 04:50:54;;;;;;;10.82;3.72;;;;;;;9.55;100.00;97726.06;5029989;28;20053;-67
2023/03/14 04:53:21;;;;;;;13.63;5.20;;;;;;;9.65;100.00;97719.84;5030067;28;20088;-67
2023/03/14 04:55:50;;;;;;;12.70;5.07;;;;;;;9.73;100.00;97727.13;5029944;28;20058;-66
2023/03/14 04:58:18;;;;;;;18.67;5.90;;;;;;;9.89;100.00;97723.34;5030773;28;20412;-66
2023/03/14 05:00:46;;;;;;;10.70;4.20;;;;;;;9.98;100.00;97712.75;5029733;28;20045;-66
2023/03/14 05:03:15;;;;;;;12.20;4.75;;;;;;;9.98;100.00;97712.75;5027946;28;20494;-66
2023/03/14 05:05:43;;;;;;;13.05;5.93;;;;;;;10.08;100.00;97702.91;5029362;28;20430;-66
2023/03/14 05:08:11;;;;;;;19.42;4.18;;;;;;;9.95;100.00;97696.81;5030093;28;20057;-66
2023/03/14 05:10:38;;;;;;;9.95;3.10;;;;;;;9.93;100.00;97696.38;5029832;28;20064;-65
2023/03/14 05:13:05;;;;;;;9.40;2.78;;;;;;;9.71;100.00;97684.22;5029832;28;20064;-66
2023/03/14 05:15:34;;;;;;;9.23;2.50;;;;;;;9.61;100.00;97682.09;5028802;28;20507;-66
2023/03/14 05:18:01;;;;;;;9.40;2.45;;;;;;;9.58;100.00;97682.84;5028209;28;20068;-66
2023/03/14 05:20:28;;;;;;;14.52;3.03;;;;;;;9.55;100.00;97679.66;5029585;28;20049;-66
2023/03/14 05:22:56;;;;;;;13.73;3.00;;;;;;;9.52;100.00;97676.81;5029605;28;20053;-66
2023/03/14 05:25:23;;;;;;;8.57;2.47;;;;;;;9.37;100.00;97672.25;5028901;28;20049;-67
2023/03/14 05:27:50;;;;;;;9.77;2.88;;;;;;;9.40;100.00;97680.59;5028635;28;20525;-66
2023/03/14 05:30:17;;;;;;;7.25;3.22;;;;;;;9.40;100.00;97660.38;5029749;28;20162;-68
2023/03/14 05:32:46;;;;;;;8.82;3.00;;;;;;;9.31;100.00;97677.31;5029423;28;20057;-66
2023/03/14 05:35:13;;;;;;;7.43;2.72;;;;;;;9.33;100.00;97658.28;5027799;28;20069;-66
2023/03/14 05:37:40;;;;;;;6.38;2.60;;;;;;;9.36;100.00;97668.66;5029378;28;20453;-66
2023/03/14 05:40:09;;;;;;;7.93;2.97;;;;;;;9.30;100.00;97670.97;5029247;28;20060;-65
2023/03/14 05:42:36;;;;;;;6.32;2.80;;;;;;;9.26;100.00;97670.09;5028937;28;20076;-65
2023/03/14 05:45:04;;;;;;;8.95;3.10;;;;;;;9.30;100.00;97670.13;5023593;28;20053;-61
2023/03/14 05:47:31;;;;;;;9.05;3.38;;;;;;;9.43;100.00;97662.38;5031310;27;20053;-60
2023/03/14 05:50:00;;;;;;;7.63;2.45;;;;;;;9.39;100.00;97667.13;5033088;27;20057;-60
2023/03/14 05:52:27;;;;;;;8.07;3.40;;;;;;;9.35;100.00;97667.06;5028073;27;20411;-59
2023/03/14 05:54:54;;;;;;;5.55;2.30;;;;;;;9.37;100.00;97675.03;5030883;28;20045;-60
2023/03/14 05:57:21;;;;;;;7.07;2.25;;;;;;;9.45;100.00;97671.97;5032825;27;20045;-61
2023/03/14 05:59:49;;;;;;;5.75;2.28;;;;;;;9.33;100.00;97669.41;5029929;28;20434;-60
2023/03/14 06:02:16;;;;;;;12.70;2.08;;;;;;;9.38;100.00;97666.28;5028417;28;20518;-60
2023/03/14 06:04:43;;;;;;;4.28;1.80;;;;;;;9.34;100.00;97654.31;5027232;27;20061;-60
2023/03/14 06:07:12;;;;;;;4.97;1.65;;;;;;;9.37;100.00;97658.34;5031104;28;20053;-60
2023/03/14 06:09:40;;;;;;;5.28;1.58;;;;;;;9.40;100.00;97682.59;5030571;28;20056;-61
2023/03/14 06:12:07;;;;;;;5.30;1.70;;;;;;;9.38;100.00;97665.50;5033136;27;20045;-60
2023/03/14 06:14:34;;;;;;;5.10;1.60;;;;;;;9.41;100.00;97661.97;5027089;28;20060;-60
2023/03/14 06:17:02;;;;;;;4.20;1.65;;;;;;;9.43;100.00;97657.66;5027590;28;20056;-61
2023/03/14 06:19:29;;;;;;;5.43;2.17;;;;;;;9.56;100.00;97649.88;5031368;27;20053;-60
2023/03/14 06:21:56;;;;;;;5.65;1.92;;;;;;;9.60;100.00;97656.28;5029326;28;20058;-61
2023/03/14 06:24:25;;;;;;;3.72;1.63;;;;;;;9.62;100.00;97661.47;5030840;28;20064;-61
2023/03/14 06:26:52;;;;;;;6.82;2.70;;;;;;;9.71;100.00;97656.41;5043622;27;20060;-60
2023/03/14 06:29:20;;;;;;;4.63;2.20;;;;;;;9.74;100.00;97667.59;5027191;28;20483;-60
2023/03/14 06:31:47;;;;;;;4.72;1.83;;;;;;;9.69;100.00;97642.88;5027263;28;20046;-60
2023/03/14 06:34:14;;;;;;;5.10;1.80;;;;;;;9.65;100.00;97658.72;5028456;28;20053;-60
2023/03/14 06:36:41;;;;;;;8.15;1.58;;;;;;;9.69;100.00;97651.22;5029781;28;20056;-61
2023/03/14 06:39:09;;;;;;;3.47;1.25;;;;;;;9.73;99.85;97668.75;5029842;27;20056;-60
2023/03/14 06:41:37;;;;;;;2.70;1.50;;;;;;;9.70;99.18;97661.19;5052451;27;20055;-60
2023/03/14 06:44:05;;;;;;;3.08;1.20;;;;;;;9.66;98.89;97682.56;5030296;28;20053;-61
2023/03/14 06:46:32;;;;;;;2.63;1.20;;;;;;;9.67;97.96;97655.56;5024515;28;20057;-60
2023/03/14 06:48:59;;;;;;;3.45;1.10;;;;;;;9.75;98.06;97671.94;5030973;28;20077;-60
2023/03/14 06:51:27;;;;;;;2.25;0.90;;;;;;;9.78;96.79;97662.06;5031892;28;20057;-60
2023/03/14 06:53:54;;;;;;;2.65;1.20;;;;;;;9.96;96.06;97678.97;5030280;28;20072;-60
2023/03/14 06:56:21;;;;;;;2.03;1.17;;;;;;;9.98;93.82;97700.84;5030264;28;20065;-61
2023/03/14 06:58:50;;;;;;;1.55;0.90;;;;;;;10.09;92.37;97671.16;5030369;28;20049;-60
2023/03/14 07:01:23;;;;;;;4.68;1.63;;;;;;;10.11;91.61;97669.59;5034073;28;20073;-60
2023/03/14 07:03:50;;;;;;;3.35;1.40;;;;;;;10.30;91.89;97653.94;5029973;28;20064;-59
2023/03/14 07:06:18;;;;;;;3.50;1.35;;;;;;;10.52;90.67;97654.94;5030912;28;20072;-60
2023/03/14 07:08:45;;;;;;;1.20;0.80;;;;;;;10.51;89.21;97658.91;5031348;28;20415;-60
2023/03/14 07:11:12;;;;;;;3.85;1.02;;;;;;;10.50;89.31;97679.59;5027600;28;20072;-60
2023/03/14 07:13:40;;;;;;;2.92;1.00;;;;;;;10.59;89.29;97677.28;5023082;28;20045;-60
2023/03/14 07:16:09;;;;;;;2.72;1.17;;;;;;;10.56;89.38;97687.19;5033262;28;20058;-59
2023/03/14 07:18:37;;;;;;;2.25;0.98;;;;;;;10.50;89.05;97688.72;5028190;28;20054;-60
2023/03/14 07:21:04;;;;;;;1.60;0.82;;;;;;;10.52;89.15;97686.38;5027559;28;20419;-60
2023/03/14 07:23:32;;;;;;;2.80;1.35;;;;;;;10.56;89.26;97691.94;5027730;28;20053;-60
2023/03/14 07:25:59;;;;;;;2.15;0.90;;;;;;;10.63;89.09;97682.88;5028988;28;20060;-59
2023/03/14 07:28:27;;;;;;;2.85;1.00;;;;;;;10.71;89.18;97687.34;5027966;28;20054;-59
2023/03/14 07:30:54;;;;;;;1.90;1.10;;;;;;;10.78;89.41;97687.38;5027208;28;20056;-60
2023/03/14 07:33:23;;;;;;;2.13;0.82;;;;;;;10.79;89.03;97688.19;5034306;28;20049;-60
2023/03/14 07:35:50;;;;;;;4.00;1.15;;;;;;;10.82;88.87;97691.00;5024742;28;20057;-60
2023/03/14 07:38:19;;;;;;;1.85;1.00;;;;;;;10.92;88.80;97681.16;5023573;28;20061;-59
2023/03/14 07:40:46;;;;;;;2.28;1.02;;;;;;;10.96;89.66;97684.75;5022274;28;20061;-60
2023/03/14 07:43:13;;;;;;;2.10;1.08;;;;;;;11.10;88.91;97689.63;5010382;28;20427;-60
2023/03/14 07:45:40;;;;;;;2.28;0.70;;;;;;;11.08;87.93;97694.78;5025004;28;20049;-60
2023/03/14 07:48:08;;;;;;;1.75;0.73;;;;;;;11.15;86.91;97689.28;5028125;28;20053;-60
2023/03/14 07:50:36;;;;;;;2.95;0.90;;;;;;;11.21;85.66;97690.50;5028156;28;20060;-60
2023/03/14 07:53:03;;;;;;;1.57;0.60;;;;;;;11.26;85.05;97687.38;4989347;28;1226218;-60
2023/03/14 07:55:31;;;;;;;1.45;0.85;;;;;;;11.43;85.37;97704.59;5031114;28;20053;-60
2023/03/14 07:57:58;;;;;;;1.25;0.57;;;;;;;11.47;84.07;97699.84;5030076;28;20053;-59
2023/03/14 08:00:25;;;;;;;4.28;0.90;;;;;;;11.32;83.79;97696.97;5030067;28;20070;-59
2023/03/14 08:02:53;;;;;;;2.03;0.77;;;;;;;11.52;84.03;97699.47;5030654;28;20050;-59
2023/03/14 08:05:20;;;;;;;1.23;0.70;;;;;;;11.31;84.08;97698.16;5028777;28;20056;-60
2023/03/14 08:07:48;;;;;;;1.58;0.73;;;;;;;11.15;84.02;97695.66;5030554;28;20060;-59
2023/03/14 08:10:21;;;;;;;1.38;0.70;;;;;;;11.23;84.86;97706.84;5030089;28;20063;-59
2023/03/14 08:12:49;;;;;;;1.42;0.70;;;;;;;11.34;84.20;97702.16;5030552;28;20059;-59
2023/03/14 08:15:16;;;;;;;1.20;0.70;;;;;;;11.30;84.02;97704.91;5030375;28;20060;-60
2023/03/14 08:17:43;;;;;;;1.52;0.60;;;;;;;11.52;83.25;97711.41;5026051;27;20078;-59
2023/03/14 08:20:12;;;;;;;1.75;0.77;;;;;;;11.40;82.31;97708.16;5029262;27;20057;-59
2023/03/14 08:22:40;;;;;;;1.50;0.80;;;;;;;11.55;82.76;97709.88;5030312;28;20058;-59
2023/03/14 08:25:09;;;;;;;3.40;0.95;;;;;;;11.67;81.37;97712.31;5029731;28;20075;-59
2023/03/14 08:27:38;;;;;;;1.60;0.80;;;;;;;11.69;81.70;97707.13;5030320;28;20073;-59
2023/03/14 08:30:07;;;;;;;1.58;1.00;;;;;;;11.58;81.28;97709.88;5027921;28;20060;-59
2023/03/14 08:32:34;;;;;;;1.55;1.05;;;;;;;11.96;81.70;97701.34;5030779;27;20049;-60
2023/03/14 08:35:01;;;;;;;1.52;1.00;;;;;;;12.20;80.98;97702.63;5029530;27;20514;-60
2023/03/14 08:37:28;;;;;;;1.85;1.10;;;;;;;12.51;80.58;97703.91;5030326;28;20049;-59
2023/03/14 08:39:56;;;;;;;1.90;1.38;;;;;;;12.10;79.41;97703.41;5030227;28;20412;-59
2023/03/14 08:42:24;;;;;;;2.00;1.05;;;;;;;12.03;79.29;97717.28;5029699;28;20053;-60
2023/03/14 08:44:52;;;;;;;1.60;1.20;;;;;;;11.91;80.45;97710.09;5030017;28;20054;-60
2023/03/14 08:47:19;;;;;;;1.40;1.00;;;;;;;11.91;80.57;97718.47;5029956;28;20131;-59
2023/03/14 08:49:46;;;;;;;1.58;1.00;;;;;;;11.97;80.61;97708.53;5028827;27;20053;-59
2023/03/14 08:52:16;;;;;;;3.03;1.05;;;;;;;12.05;80.46;97712.91;5029416;28;20052;-64
2023/03/14 08:54:44;;;;;;;2.05;1.20;;;;;;;12.38;81.00;97702.69;5029662;28;20078;-64
2023/03/14 08:57:12;;;;;;;2.63;1.20;;;;;;;12.39;80.01;97712.66;5030178;28;20412;-64
2023/03/14 08:59:40;;;;;;;2.47;1.17;;;;;;;12.42;79.50;97711.88;5030257;28;20062;-64
2023/03/14 09:02:10;;;;;;;2.70;1.10;;;;;;;12.23;78.13;97720.59;5030455;28;20389;-64
2023/03/14 09:04:37;;;;;;;1.50;1.40;;;;;;;12.36;78.89;97724.59;5029958;28;20057;-64
2023/03/14 09:07:04;;;;;;;1.83;1.02;;;;;;;12.26;78.88;97728.16;5065220;27;20511;-64
2023/03/14 09:09:32;;;;;;;1.90;1.17;;;;;;;12.26;79.01;97719.78;5029584;28;20415;-64
2023/03/14 09:11:59;;;;;;;2.33;1.15;;;;;;;12.62;79.83;97714.28;5030142;28;20377;-65
2023/03/14 09:14:27;;;;;;;1.60;1.13;;;;;;;12.78;78.88;97715.53;5030085;28;20483;-65
2023/03/14 09:16:55;;;;;;;1.80;1.20;;;;;;;12.97;79.06;97708.75;5028227;28;20057;-64
2023/03/14 09:19:23;;;;;;;2.85;1.60;;;;;;;13.15;77.39;97721.94;5029736;28;20050;-64
2023/03/14 09:21:50;;;;;;;1.63;1.30;;;;;;;12.98;77.05;97715.16;5029202;28;20056;-65
2023/03/14 09:24:18;;;;;;;2.10;1.20;;;;;;;12.87;76.86;97717.13;5029745;28;20388;-65
2023/03/14 09:26:45;;;;;;;1.80;1.17;;;;;;;12.77;75.90;97725.09;5029775;28;20185;-64
2023/03/14 09:29:13;;;;;;;3.35;1.50;;;;;;;12.78;76.33;97723.91;5029964;28;20058;-64
2023/03/14 09:31:40;;;;;;;2.13;1.25;;;;;;;12.85;75.58;97714.75;5029680;28;20053;-65
2023/03/14 09:34:08;;;;;;;2.75;1.60;;;;;;;12.79;78.94;97733.09;5029548;28;20049;-64
2023/03/14 09:36:37;;;;;;;2.15;1.73;;;;;;;12.71;79.55;97731.47;5029050;28;20401;-64
2023/03/14 09:39:05;;;;;;;1.80;1.48;;;;;;;12.70;79.18;97739.03;5029587;28;20076;-65
2023/03/14 09:41:35;;;;;;;2.17;1.80;;;;;;;12.63;78.62;97738.25;5029183;28;20076;-65
2023/03/14 09:44:06;;;;;;;2.05;1.75;;;;;;;12.36;81.78;97742.16;5029502;28;20061;-65
2023/03/14 09:46:38;;;;;;;2.08;1.88;;;;;;;12.33;83.25;97742.16;5029211;28;20057;-65
2023/03/14 09:49:12;;;;;;;1.95;1.60;;;;;;;12.29;81.07;97742.13;5028994;28;20057;-66
2023/03/14 09:51:40;;;;;;;2.13;1.50;;;;;;;12.22;81.17;97750.50;5028798;28;20054;-65
2023/03/14 09:54:24;;;;;;;2.10;1.63;;;;;;;12.19;81.30;97774.38;5030048;28;20407;-65
2023/03/14 09:56:52;;;;;;;1.88;1.30;;;;;;;11.96;80.43;97768.28;5030032;28;20061;-66
2023/03/14 09:59:20;;;;;;;3.38;1.95;;;;;;;12.11;81.69;97774.72;5029248;28;20050;-65
2023/03/14 10:01:47;;;;;;;2.47;1.27;;;;;;;12.14;81.70;97799.88;5029279;28;20072;-66
2023/03/14 10:04:22;;;;;;;3.22;0.90;;;;;;;12.08;82.50;97826.53;5028310;28;20053;-65
2023/03/14 10:06:49;;;;;;;1.90;0.60;;;;;;;11.87;81.62;97840.34;5028586;28;20050;-66
2023/03/14 10:09:24;;;;;;;1.55;0.68;;;;;;;11.78;80.43;97851.81;5028710;28;20058;-66
2023/03/14 10:11:55;;;;;;;2.25;0.90;;;;;;;11.78;80.19;97860.97;5029231;28;20061;-66
2023/03/14 10:14:33;;;;;;;1.38;0.70;;;;;;;11.91;80.75;97869.88;5026573;28;20496;-65
2023/03/14 10:17:09;;;;;;;1.13;0.60;;;;;;;11.84;78.53;97894.88;5029063;28;20049;-62
2023/03/14 10:19:38;;;;;;;1.00;0.68;;;;;;;11.74;78.25;97898.41;5028004;28;20063;-62
2023/03/14 10:22:07;;;;;;;2.22;1.38;;;;;;;11.61;77.74;97920.16;5029112;28;20054;-63
2023/03/14 10:24:35;;;;;;;1.92;1.10;;;;;;;11.62;77.76;97938.53;5029151;28;20476;-62
2023/03/14 10:27:05;;;;;;;1.63;0.90;;;;;;;11.63;78.38;97956.03;5028426;28;20065;-62
2023/03/14 10:29:34;;;;;;;1.60;1.20;;;;;;;11.52;78.43;97958.72;5028768;28;20408;-62
2023/03/14 10:32:04;;;;;;;2.88;1.10;;;;;;;11.36;78.74;97965.34;5028257;28;20054;-62
2023/03/14 10:34:32;;;;;;;;;;;;;;;11.25;78.45;97978.34;5031384;28;20049;-62
2023/03/14 10:37:08;;;;;;;1.30;0.90;;;;;;;11.29;79.02;97981.97;5031949;28;19921;-62
2023/03/14 10:39:43;;;;;;;1.85;0.90;;;;;;;11.45;78.97;98000.47;5032191;28;20064;-62
2023/03/14 10:42:20;;;;;;;1.67;1.08;;;;;;;11.57;78.83;98005.78;5032086;28;20060;-61
2023/03/14 10:44:51;;;;;;;1.85;1.00;;;;;;;11.47;78.93;98020.41;5032013;28;20053;-62
2023/03/14 10:47:23;;;;;;;3.42;1.13;;;;;;;11.37;79.02;98024.66;5031678;28;20057;-62
2023/03/14 10:49:50;;;;;;;5.65;1.67;;;;;;;11.23;79.08;98028.06;5028014;28;20045;-62
2023/03/14 10:52:23;;;;;;;3.22;1.40;;;;;;;11.18;79.51;98036.78;5012986;28;20539;-62
2023/03/14 10:54:55;;;;;;;2.08;0.90;;;;;;;11.01;78.82;98042.91;5013353;28;20057;-62
2023/03/14 10:57:23;;;;;;;2.42;1.08;;;;;;;11.00;78.68;98066.38;5013269;28;20085;-62
2023/03/14 10:59:50;;;;;;;1.52;0.70;;;;;;;10.88;78.53;98095.25;5031068;28;20053;-62
2023/03/14 11:02:40;;;;;;;1.92;1.55;;;;;;;10.72;77.35;98109.31;5032123;28;20050;-62
2023/03/14 11:05:16;;;;;;;3.08;1.80;;;;;;;10.62;77.78;98118.31;5031683;27;20518;-62
2023/03/14 11:07:45;;;;;;;2.88;1.20;;;;;;;10.64;77.85;98136.22;5030904;27;20053;-62
2023/03/14 11:10:20;;;;;;;2.13;1.05;;;;;;;10.64;78.17;98141.00;5031638;28;20049;-61
2023/03/14 11:13:02;;;;;;;1.88;0.90;;;;;;;10.55;77.63;98155.97;5031607;28;20400;-61
2023/03/14 11:15:35;;;;;;;2.15;1.00;;;;;;;10.52;78.15;98167.03;5031395;28;20053;-61
2023/03/14 11:18:23;;;;;;;2.63;1.05;;;;;;;10.56;79.25;98179.88;5031713;28;20053;-61
2023/03/14 11:20:54;;;;;;;2.53;1.10;;;;;;;10.65;79.48;98184.38;5031398;28;20428;-62
2023/03/14 11:23:28;;;;;;;3.58;1.05;;;;;;;10.70;79.09;98196.00;5031700;28;20381;-61
2023/03/14 11:26:05;;;;;;;3.80;1.30;;;;;;;10.73;77.92;98217.53;5031314;28;20053;-61
2023/03/14 11:28:38;;;;;;;1.88;1.25;;;;;;;10.61;76.61;98236.41;5031265;28;20054;-62
2023/03/14 11:31:17;;;;;;;2.50;1.30;;;;;;;10.76;76.96;98235.47;5031359;28;20049;-62
2023/03/14 11:33:51;;;;;;;2.33;1.23;;;;;;;10.94;75.66;98244.97;5030255;28;20385;-62
2023/03/14 11:36:22;;;;;;;3.53;1.65;;;;;;;10.87;74.38;98257.94;5031339;28;20050;-62
2023/03/14 11:38:59;;;;;;;2.60;1.80;;;;;;;10.85;73.69;98269.44;5031512;28;20060;-62
2023/03/14 11:41:31;;;;;;;2.83;1.83;;;;;;;10.73;74.12;98289.13;5031080;28;20056;-61